sensor_id;sensor_type;location;lat;lon;timestamp;temperature;humidity
77052;SHT30;65980;44.898;8.602;2023-07-20T00:00:40;26.51;71.72
77052;SHT30;65980;44.898;8.602;2023-07-20T00:03:45;26.51;71.65
77052;SHT30;65980;44.898;8.602;2023-07-20T00:06:52;26.47;71.65
77052;SHT30;65980;44.898;8.602;2023-07-20T00:09:56;26.51;71.47
77052;SHT30;65980;44.898;8.602;2023-07-20T00:13:02;26.55;71.43
77052;SHT30;65980;44.898;8.602;2023-07-20T00:16:07;26.43;71.69
77052;SHT30;65980;44.898;8.602;2023-07-20T00:19:12;26.43;71.76
77052;SHT30;65980;44.898;8.602;2023-07-20T00:22:16;26.39;71.67
77052;SHT30;65980;44.898;8.602;2023-07-20T00:25:21;26.34;72.09
77052;SHT30;65980;44.898;8.602;2023-07-20T00:28:25;26.34;71.91
77052;SHT30;65980;44.898;8.602;2023-07-20T00:31:29;26.34;71.80
77052;SHT30;65980;44.898;8.602;2023-07-20T00:34:34;26.36;71.77
77052;SHT30;65980;44.898;8.602;2023-07-20T00:37:38;26.47;71.42
77052;SHT30;65980;44.898;8.602;2023-07-20T00:40:43;26.43;71.35
77052;SHT30;65980;44.898;8.602;2023-07-20T00:43:51;26.32;71.56
77052;SHT30;65980;44.898;8.602;2023-07-20T00:46:56;26.27;71.82
77052;SHT30;65980;44.898;8.602;2023-07-20T00:50:00;26.22;72.15
77052;SHT30;65980;44.898;8.602;2023-07-20T00:53:05;26.19;72.24
77052;SHT30;65980;44.898;8.602;2023-07-20T00:56:10;26.15;72.18
77052;SHT30;65980;44.898;8.602;2023-07-20T00:59:15;26.12;72.19
77052;SHT30;65980;44.898;8.602;2023-07-20T01:02:20;26.13;72.21
77052;SHT30;65980;44.898;8.602;2023-07-20T01:05:35;26.13;72.44
77052;SHT30;65980;44.898;8.602;2023-07-20T01:12:35;25.98;73.10
77052;SHT30;65980;44.898;8.602;2023-07-20T01:15:41;25.90;73.27
77052;SHT30;65980;44.898;8.602;2023-07-20T01:18:48;25.86;73.23
77052;SHT30;65980;44.898;8.602;2023-07-20T01:31:52;25.90;73.20
77052;SHT30;65980;44.898;8.602;2023-07-20T01:34:58;25.99;73.09
77052;SHT30;65980;44.898;8.602;2023-07-20T01:38:04;25.98;73.33
77052;SHT30;65980;44.898;8.602;2023-07-20T01:41:10;26.09;72.87
77052;SHT30;65980;44.898;8.602;2023-07-20T01:44:15;26.06;72.59
77052;SHT30;65980;44.898;8.602;2023-07-20T01:47:19;26.05;72.85
77052;SHT30;65980;44.898;8.602;2023-07-20T01:50:22;26.08;72.78
77052;SHT30;65980;44.898;8.602;2023-07-20T01:53:27;26.08;72.99
77052;SHT30;65980;44.898;8.602;2023-07-20T01:56:31;26.08;73.26
77052;SHT30;65980;44.898;8.602;2023-07-20T01:59:36;25.88;73.59
77052;SHT30;65980;44.898;8.602;2023-07-20T02:02:41;25.92;73.39
77052;SHT30;65980;44.898;8.602;2023-07-20T02:05:45;26.05;72.85
77052;SHT30;65980;44.898;8.602;2023-07-20T02:08:49;25.99;72.72
77052;SHT30;65980;44.898;8.602;2023-07-20T02:11:53;25.74;73.39
77052;SHT30;65980;44.898;8.602;2023-07-20T02:14:58;25.86;72.88
77052;SHT30;65980;44.898;8.602;2023-07-20T02:18:02;25.90;72.68
77052;SHT30;65980;44.898;8.602;2023-07-20T02:21:12;25.79;72.83
77052;SHT30;65980;44.898;8.602;2023-07-20T02:24:17;25.84;72.49
77052;SHT30;65980;44.898;8.602;2023-07-20T02:27:21;25.82;72.37
77052;SHT30;65980;44.898;8.602;2023-07-20T02:30:25;25.84;72.22
77052;SHT30;65980;44.898;8.602;2023-07-20T02:33:29;25.77;72.14
77052;SHT30;65980;44.898;8.602;2023-07-20T02:36:35;25.74;72.15
77052;SHT30;65980;44.898;8.602;2023-07-20T02:39:43;25.57;72.58
77052;SHT30;65980;44.898;8.602;2023-07-20T02:42:48;25.54;72.76
77052;SHT30;65980;44.898;8.602;2023-07-20T02:45:53;25.44;72.80
77052;SHT30;65980;44.898;8.602;2023-07-20T02:48:57;25.60;72.52
77052;SHT30;65980;44.898;8.602;2023-07-20T02:52:01;25.77;71.85
77052;SHT30;65980;44.898;8.602;2023-07-20T02:55:07;25.74;71.81
77052;SHT30;65980;44.898;8.602;2023-07-20T02:58:11;25.77;71.70
77052;SHT30;65980;44.898;8.602;2023-07-20T03:01:15;25.72;72.13
77052;SHT30;65980;44.898;8.602;2023-07-20T03:04:19;25.67;71.94
77052;SHT30;65980;44.898;8.602;2023-07-20T03:07:24;25.78;71.20
77052;SHT30;65980;44.898;8.602;2023-07-20T03:10:28;25.88;70.96
77052;SHT30;65980;44.898;8.602;2023-07-20T03:13:34;25.86;70.79
77052;SHT30;65980;44.898;8.602;2023-07-20T03:16:39;25.70;71.25
77052;SHT30;65980;44.898;8.602;2023-07-20T03:19:44;25.71;71.06
77052;SHT30;65980;44.898;8.602;2023-07-20T03:22:48;25.81;70.86
77052;SHT30;65980;44.898;8.602;2023-07-20T03:25:53;25.60;71.30
77052;SHT30;65980;44.898;8.602;2023-07-20T03:29:00;25.65;71.27
77052;SHT30;65980;44.898;8.602;2023-07-20T03:32:04;25.62;71.22
77052;SHT30;65980;44.898;8.602;2023-07-20T03:35:09;25.64;71.13
77052;SHT30;65980;44.898;8.602;2023-07-20T03:38:12;25.74;71.04
77052;SHT30;65980;44.898;8.602;2023-07-20T03:41:17;25.54;73.15
77052;SHT30;65980;44.898;8.602;2023-07-20T03:44:24;24.89;75.53
77052;SHT30;65980;44.898;8.602;2023-07-20T03:47:29;24.78;75.70
77052;SHT30;65980;44.898;8.602;2023-07-20T03:50:33;24.69;75.96
77052;SHT30;65980;44.898;8.602;2023-07-20T03:53:37;24.89;75.15
77052;SHT30;65980;44.898;8.602;2023-07-20T03:56:41;25.00;74.59
77052;SHT30;65980;44.898;8.602;2023-07-20T03:59:45;24.88;74.81
77052;SHT30;65980;44.898;8.602;2023-07-20T04:02:50;24.51;75.87
77052;SHT30;65980;44.898;8.602;2023-07-20T04:05:55;24.50;75.89
77052;SHT30;65980;44.898;8.602;2023-07-20T04:08:58;24.76;74.99
77052;SHT30;65980;44.898;8.602;2023-07-20T04:12:03;24.43;75.94
77052;SHT30;65980;44.898;8.602;2023-07-20T04:15:07;24.13;76.74
77052;SHT30;65980;44.898;8.602;2023-07-20T04:18:13;24.03;76.59
77052;SHT30;65980;44.898;8.602;2023-07-20T04:21:17;24.05;76.20
77052;SHT30;65980;44.898;8.602;2023-07-20T04:24:22;24.06;75.63
77052;SHT30;65980;44.898;8.602;2023-07-20T04:27:27;24.14;74.96
77052;SHT30;65980;44.898;8.602;2023-07-20T04:30:36;24.17;74.43
77052;SHT30;65980;44.898;8.602;2023-07-20T04:33:41;24.40;73.55
77052;SHT30;65980;44.898;8.602;2023-07-20T04:36:46;24.31;73.12
77052;SHT30;65980;44.898;8.602;2023-07-20T04:39:51;24.33;73.29
77052;SHT30;65980;44.898;8.602;2023-07-20T04:42:56;24.58;72.14
77052;SHT30;65980;44.898;8.602;2023-07-20T04:46:00;24.53;72.20
77052;SHT30;65980;44.898;8.602;2023-07-20T04:49:05;24.64;71.69
77052;SHT30;65980;44.898;8.602;2023-07-20T04:52:12;24.72;71.28
77052;SHT30;65980;44.898;8.602;2023-07-20T04:55:17;24.72;71.15
77052;SHT30;65980;44.898;8.602;2023-07-20T04:58:21;24.79;70.96
77052;SHT30;65980;44.898;8.602;2023-07-20T05:01:26;24.65;71.17
77052;SHT30;65980;44.898;8.602;2023-07-20T05:04:31;24.31;72.10
77052;SHT30;65980;44.898;8.602;2023-07-20T05:07:34;24.45;72.03
77052;SHT30;65980;44.898;8.602;2023-07-20T05:10:39;24.74;70.92
77052;SHT30;65980;44.898;8.602;2023-07-20T05:13:44;24.86;70.44
77052;SHT30;65980;44.898;8.602;2023-07-20T05:16:50;24.91;70.44
77052;SHT30;65980;44.898;8.602;2023-07-20T05:19:55;24.65;71.25
77052;SHT30;65980;44.898;8.602;2023-07-20T05:23:00;24.40;72.36
77052;SHT30;65980;44.898;8.602;2023-07-20T05:26:05;24.45;72.29
77052;SHT30;65980;44.898;8.602;2023-07-20T05:29:09;24.55;71.88
77052;SHT30;65980;44.898;8.602;2023-07-20T05:32:14;24.99;70.68
77052;SHT30;65980;44.898;8.602;2023-07-20T05:35:19;25.09;70.13
77052;SHT30;65980;44.898;8.602;2023-07-20T05:38:23;25.28;69.83
77052;SHT30;65980;44.898;8.602;2023-07-20T05:41:27;25.40;69.61
77052;SHT30;65980;44.898;8.602;2023-07-20T05:44:32;25.38;70.03
77052;SHT30;65980;44.898;8.602;2023-07-20T05:47:37;25.31;69.94
77052;SHT30;65980;44.898;8.602;2023-07-20T05:50:43;25.41;69.86
77052;SHT30;65980;44.898;8.602;2023-07-20T05:53:48;25.33;70.37
77052;SHT30;65980;44.898;8.602;2023-07-20T05:56:54;25.43;70.16
77052;SHT30;65980;44.898;8.602;2023-07-20T05:59:58;24.98;72.13
77052;SHT30;65980;44.898;8.602;2023-07-20T06:03:03;25.17;71.33
77052;SHT30;65980;44.898;8.602;2023-07-20T06:06:08;25.43;70.88
77052;SHT30;65980;44.898;8.602;2023-07-20T06:09:13;25.62;70.19
77052;SHT30;65980;44.898;8.602;2023-07-20T06:12:17;25.86;69.50
77052;SHT30;65980;44.898;8.602;2023-07-20T06:15:33;25.84;69.00
77052;SHT30;65980;44.898;8.602;2023-07-20T06:18:43;26.00;69.30
77052;SHT30;65980;44.898;8.602;2023-07-20T06:21:49;25.51;70.57
77052;SHT30;65980;44.898;8.602;2023-07-20T06:24:54;25.27;71.21
77052;SHT30;65980;44.898;8.602;2023-07-20T06:27:57;25.08;71.83
77052;SHT30;65980;44.898;8.602;2023-07-20T06:31:02;25.13;71.58
77052;SHT30;65980;44.898;8.602;2023-07-20T06:34:10;25.23;71.05
77052;SHT30;65980;44.898;8.602;2023-07-20T06:37:15;25.09;71.92
77052;SHT30;65980;44.898;8.602;2023-07-20T06:40:20;25.10;71.96
77052;SHT30;65980;44.898;8.602;2023-07-20T06:43:25;25.15;71.73
77052;SHT30;65980;44.898;8.602;2023-07-20T06:46:28;25.10;71.56
77052;SHT30;65980;44.898;8.602;2023-07-20T06:49:34;25.24;71.18
77052;SHT30;65980;44.898;8.602;2023-07-20T06:52:39;25.37;71.28
77052;SHT30;65980;44.898;8.602;2023-07-20T06:55:43;25.26;70.73
77052;SHT30;65980;44.898;8.602;2023-07-20T06:58:49;25.75;69.17
77052;SHT30;65980;44.898;8.602;2023-07-20T07:01:54;26.06;68.82
77052;SHT30;65980;44.898;8.602;2023-07-20T07:04:58;26.10;68.49
77052;SHT30;65980;44.898;8.602;2023-07-20T07:08:05;26.57;67.03
77052;SHT30;65980;44.898;8.602;2023-07-20T07:11:11;26.78;66.89
77052;SHT30;65980;44.898;8.602;2023-07-20T07:14:15;26.99;66.34
77052;SHT30;65980;44.898;8.602;2023-07-20T07:17:20;26.79;66.14
77052;SHT30;65980;44.898;8.602;2023-07-20T07:20:25;26.55;66.96
77052;SHT30;65980;44.898;8.602;2023-07-20T07:23:31;26.62;67.14
77052;SHT30;65980;44.898;8.602;2023-07-20T07:26:35;26.60;66.95
77052;SHT30;65980;44.898;8.602;2023-07-20T07:29:40;26.95;65.94
77052;SHT30;65980;44.898;8.602;2023-07-20T07:32:45;26.67;66.91
77052;SHT30;65980;44.898;8.602;2023-07-20T07:35:50;26.87;66.09
77052;SHT30;65980;44.898;8.602;2023-07-20T07:38:57;27.26;64.90
77052;SHT30;65980;44.898;8.602;2023-07-20T07:42:02;26.85;65.99
77052;SHT30;65980;44.898;8.602;2023-07-20T07:45:07;26.60;67.32
77052;SHT30;65980;44.898;8.602;2023-07-20T07:48:11;26.79;66.38
77052;SHT30;65980;44.898;8.602;2023-07-20T07:51:18;27.30;64.65
77052;SHT30;65980;44.898;8.602;2023-07-20T07:54:23;27.76;63.75
77052;SHT30;65980;44.898;8.602;2023-07-20T07:57:27;27.88;63.02
77052;SHT30;65980;44.898;8.602;2023-07-20T08:00:30;28.01;61.98
77052;SHT30;65980;44.898;8.602;2023-07-20T08:04:02;28.04;62.38
77052;SHT30;65980;44.898;8.602;2023-07-20T08:07:10;27.58;63.35
77052;SHT30;65980;44.898;8.602;2023-07-20T08:10:14;27.99;62.86
77052;SHT30;65980;44.898;8.602;2023-07-20T08:17:52;28.09;61.92
77052;SHT30;65980;44.898;8.602;2023-07-20T08:21:06;28.39;61.48
77052;SHT30;65980;44.898;8.602;2023-07-20T08:24:48;28.12;61.45
77052;SHT30;65980;44.898;8.602;2023-07-20T08:27:54;28.27;61.35
77052;SHT30;65980;44.898;8.602;2023-07-20T08:31:08;28.70;60.37
77052;SHT30;65980;44.898;8.602;2023-07-20T08:34:16;29.16;59.42
77052;SHT30;65980;44.898;8.602;2023-07-20T08:37:20;29.50;58.56
77052;SHT30;65980;44.898;8.602;2023-07-20T08:40:25;29.51;57.22
77052;SHT30;65980;44.898;8.602;2023-07-20T08:43:42;29.80;56.39
77052;SHT30;65980;44.898;8.602;2023-07-20T08:46:49;29.87;56.18
77052;SHT30;65980;44.898;8.602;2023-07-20T08:49:56;29.85;56.61
77052;SHT30;65980;44.898;8.602;2023-07-20T08:53:00;30.13;56.30
77052;SHT30;65980;44.898;8.602;2023-07-20T08:56:14;30.35;55.96
77052;SHT30;65980;44.898;8.602;2023-07-20T08:59:29;30.41;55.37
77052;SHT30;65980;44.898;8.602;2023-07-20T09:02:45;30.22;56.56
77052;SHT30;65980;44.898;8.602;2023-07-20T09:05:56;30.37;54.38
77052;SHT30;65980;44.898;8.602;2023-07-20T09:09:41;30.81;53.84
77052;SHT30;65980;44.898;8.602;2023-07-20T09:13:30;30.70;53.85
77052;SHT30;65980;44.898;8.602;2023-07-20T09:16:57;30.91;53.57
77052;SHT30;65980;44.898;8.602;2023-07-20T09:20:24;30.75;54.14
77052;SHT30;65980;44.898;8.602;2023-07-20T09:23:39;31.05;53.05
77052;SHT30;65980;44.898;8.602;2023-07-20T09:26:51;31.36;52.12
77052;SHT30;65980;44.898;8.602;2023-07-20T09:30:05;31.43;52.12
77052;SHT30;65980;44.898;8.602;2023-07-20T09:33:42;31.14;52.78
77052;SHT30;65980;44.898;8.602;2023-07-20T09:36:55;31.23;52.50
77052;SHT30;65980;44.898;8.602;2023-07-20T09:40:52;30.81;53.45
77052;SHT30;65980;44.898;8.602;2023-07-20T09:44:03;30.66;54.66
77052;SHT30;65980;44.898;8.602;2023-07-20T09:47:27;31.35;52.39
77052;SHT30;65980;44.898;8.602;2023-07-20T09:50:50;31.56;51.84
77052;SHT30;65980;44.898;8.602;2023-07-20T09:54:02;31.72;50.94
77052;SHT30;65980;44.898;8.602;2023-07-20T10:01:36;31.85;50.69
77052;SHT30;65980;44.898;8.602;2023-07-20T10:05:03;31.91;50.08
77052;SHT30;65980;44.898;8.602;2023-07-20T10:12:54;31.77;50.72
77052;SHT30;65980;44.898;8.602;2023-07-20T10:16:46;32.29;49.74
77052;SHT30;65980;44.898;8.602;2023-07-20T10:19:57;33.38;46.66
77052;SHT30;65980;44.898;8.602;2023-07-20T10:23:09;34.63;43.54
77052;SHT30;65980;44.898;8.602;2023-07-20T10:26:26;35.21;42.55
77052;SHT30;65980;44.898;8.602;2023-07-20T10:29:31;38.11;37.77
77052;SHT30;65980;44.898;8.602;2023-07-20T10:32:37;38.19;37.25
77052;SHT30;65980;44.898;8.602;2023-07-20T10:36:02;39.09;35.65
77052;SHT30;65980;44.898;8.602;2023-07-20T10:40:33;38.19;36.81
77052;SHT30;65980;44.898;8.602;2023-07-20T10:43:42;36.83;39.13
77052;SHT30;65980;44.898;8.602;2023-07-20T10:46:47;35.72;40.98
77052;SHT30;65980;44.898;8.602;2023-07-20T10:50:22;34.65;43.54
77052;SHT30;65980;44.898;8.602;2023-07-20T10:53:39;34.25;43.87
77052;SHT30;65980;44.898;8.602;2023-07-20T10:56:50;33.85;44.91
77052;SHT30;65980;44.898;8.602;2023-07-20T11:00:18;33.59;45.25
77052;SHT30;65980;44.898;8.602;2023-07-20T11:03:48;33.73;45.58
77052;SHT30;65980;44.898;8.602;2023-07-20T11:06:59;33.66;45.42
77052;SHT30;65980;44.898;8.602;2023-07-20T11:10:17;33.74;45.96
77052;SHT30;65980;44.898;8.602;2023-07-20T11:13:23;33.73;45.78
77052;SHT30;65980;44.898;8.602;2023-07-20T11:16:40;34.47;44.73
77052;SHT30;65980;44.898;8.602;2023-07-20T11:19:58;35.59;41.82
77052;SHT30;65980;44.898;8.602;2023-07-20T11:23:11;35.94;40.58
77052;SHT30;65980;44.898;8.602;2023-07-20T11:26:16;35.13;42.39
77052;SHT30;65980;44.898;8.602;2023-07-20T11:29:26;34.83;43.75
77052;SHT30;65980;44.898;8.602;2023-07-20T11:32:50;35.58;42.26
77052;SHT30;65980;44.898;8.602;2023-07-20T11:35:55;35.40;42.04
77052;SHT30;65980;44.898;8.602;2023-07-20T11:39:00;35.29;41.93
77052;SHT30;65980;44.898;8.602;2023-07-20T11:42:06;36.49;40.09
77052;SHT30;65980;44.898;8.602;2023-07-20T11:45:10;37.68;37.42
77052;SHT30;65980;44.898;8.602;2023-07-20T11:53:26;35.92;40.41
77052;SHT30;65980;44.898;8.602;2023-07-20T11:57:02;35.07;42.14
77052;SHT30;65980;44.898;8.602;2023-07-20T12:00:41;34.65;43.04
77052;SHT30;65980;44.898;8.602;2023-07-20T12:03:48;34.31;43.80
77052;SHT30;65980;44.898;8.602;2023-07-20T12:06:57;34.25;43.73
77052;SHT30;65980;44.898;8.602;2023-07-20T12:10:09;33.83;43.98
77052;SHT30;65980;44.898;8.602;2023-07-20T12:13:22;33.85;43.95
77052;SHT30;65980;44.898;8.602;2023-07-20T12:16:28;33.94;44.45
77052;SHT30;65980;44.898;8.602;2023-07-20T12:20:24;34.20;43.57
77052;SHT30;65980;44.898;8.602;2023-07-20T12:23:38;34.11;42.45
77052;SHT30;65980;44.898;8.602;2023-07-20T12:26:42;33.52;43.98
77052;SHT30;65980;44.898;8.602;2023-07-20T12:29:47;33.28;44.21
77052;SHT30;65980;44.898;8.602;2023-07-20T12:32:52;33.90;43.73
77052;SHT30;65980;44.898;8.602;2023-07-20T12:35:59;34.08;44.12
77052;SHT30;65980;44.898;8.602;2023-07-20T12:39:05;34.24;43.02
77052;SHT30;65980;44.898;8.602;2023-07-20T12:42:14;34.21;43.52
77052;SHT30;65980;44.898;8.602;2023-07-20T12:45:20;33.96;43.44
77052;SHT30;65980;44.898;8.602;2023-07-20T12:48:25;33.83;43.17
77052;SHT30;65980;44.898;8.602;2023-07-20T12:51:29;34.11;43.01
77052;SHT30;65980;44.898;8.602;2023-07-20T12:54:33;34.35;42.57
77052;SHT30;65980;44.898;8.602;2023-07-20T12:57:37;34.31;43.86
77052;SHT30;65980;44.898;8.602;2023-07-20T13:00:42;34.23;43.63
77052;SHT30;65980;44.898;8.602;2023-07-20T13:03:46;34.11;42.86
77052;SHT30;65980;44.898;8.602;2023-07-20T13:06:50;34.31;44.66
77052;SHT30;65980;44.898;8.602;2023-07-20T13:09:54;34.28;44.82
77052;SHT30;65980;44.898;8.602;2023-07-20T13:12:59;33.77;45.72
77052;SHT30;65980;44.898;8.602;2023-07-20T13:16:04;34.04;45.49
77052;SHT30;65980;44.898;8.602;2023-07-20T13:48:08;35.00;42.01
77052;SHT30;65980;44.898;8.602;2023-07-20T13:51:12;35.57;40.93
77052;SHT30;65980;44.898;8.602;2023-07-20T13:54:16;35.18;41.31
77052;SHT30;65980;44.898;8.602;2023-07-20T13:57:20;35.20;42.01
77052;SHT30;65980;44.898;8.602;2023-07-20T14:00:24;35.18;41.58
77052;SHT30;65980;44.898;8.602;2023-07-20T14:03:30;35.15;41.64
77052;SHT30;65980;44.898;8.602;2023-07-20T14:06:35;35.34;40.53
77052;SHT30;65980;44.898;8.602;2023-07-20T14:09:39;35.20;41.16
77052;SHT30;65980;44.898;8.602;2023-07-20T14:12:43;35.03;41.26
77052;SHT30;65980;44.898;8.602;2023-07-20T14:15:48;35.31;41.12
77052;SHT30;65980;44.898;8.602;2023-07-20T14:18:54;35.51;39.89
77052;SHT30;65980;44.898;8.602;2023-07-20T14:21:59;35.38;40.51
77052;SHT30;65980;44.898;8.602;2023-07-20T14:25:29;35.11;40.95
77052;SHT30;65980;44.898;8.602;2023-07-20T14:28:34;35.10;40.98
77052;SHT30;65980;44.898;8.602;2023-07-20T14:31:38;35.03;40.42
77052;SHT30;65980;44.898;8.602;2023-07-20T14:34:42;35.26;41.06
77052;SHT30;65980;44.898;8.602;2023-07-20T14:37:47;35.41;40.04
77052;SHT30;65980;44.898;8.602;2023-07-20T14:40:53;35.59;39.79
77052;SHT30;65980;44.898;8.602;2023-07-20T14:43:58;36.52;38.49
77052;SHT30;65980;44.898;8.602;2023-07-20T14:47:03;36.58;37.98
77052;SHT30;65980;44.898;8.602;2023-07-20T14:50:08;36.58;38.29
77052;SHT30;65980;44.898;8.602;2023-07-20T14:53:15;36.34;38.91
77052;SHT30;65980;44.898;8.602;2023-07-20T14:56:20;36.21;38.76
77052;SHT30;65980;44.898;8.602;2023-07-20T14:59:24;36.30;38.63
77052;SHT30;65980;44.898;8.602;2023-07-20T15:02:28;36.04;38.97
77052;SHT30;65980;44.898;8.602;2023-07-20T15:05:33;35.88;40.97
77052;SHT30;65980;44.898;8.602;2023-07-20T15:08:39;35.68;42.81
77052;SHT30;65980;44.898;8.602;2023-07-20T15:11:43;35.42;43.06
77052;SHT30;65980;44.898;8.602;2023-07-20T15:15:02;35.21;43.97
77052;SHT30;65980;44.898;8.602;2023-07-20T15:18:07;35.06;44.19
77052;SHT30;65980;44.898;8.602;2023-07-20T15:21:11;35.10;44.47
77052;SHT30;65980;44.898;8.602;2023-07-20T15:24:16;35.26;44.02
77052;SHT30;65980;44.898;8.602;2023-07-20T15:27:22;35.13;44.21
77052;SHT30;65980;44.898;8.602;2023-07-20T15:30:31;35.14;43.68
77052;SHT30;65980;44.898;8.602;2023-07-20T15:33:35;35.03;43.95
77052;SHT30;65980;44.898;8.602;2023-07-20T15:36:42;34.72;44.41
77052;SHT30;65980;44.898;8.602;2023-07-20T15:39:48;34.73;44.80
77052;SHT30;65980;44.898;8.602;2023-07-20T15:42:53;34.87;44.53
77052;SHT30;65980;44.898;8.602;2023-07-20T15:49:22;34.69;44.31
77052;SHT30;65980;44.898;8.602;2023-07-20T15:52:28;34.44;45.23
77052;SHT30;65980;44.898;8.602;2023-07-20T15:55:35;34.38;45.41
77052;SHT30;65980;44.898;8.602;2023-07-20T15:58:39;34.11;45.91
77052;SHT30;65980;44.898;8.602;2023-07-20T16:01:45;34.21;46.36
77052;SHT30;65980;44.898;8.602;2023-07-20T16:04:49;34.08;46.38
77052;SHT30;65980;44.898;8.602;2023-07-20T16:07:53;34.08;46.44
77052;SHT30;65980;44.898;8.602;2023-07-20T16:10:58;34.24;46.26
77052;SHT30;65980;44.898;8.602;2023-07-20T16:14:07;34.31;45.81
77052;SHT30;65980;44.898;8.602;2023-07-20T16:17:12;34.23;45.98
77052;SHT30;65980;44.898;8.602;2023-07-20T16:20:16;34.14;46.54
77052;SHT30;65980;44.898;8.602;2023-07-20T16:23:20;34.00;46.89
77052;SHT30;65980;44.898;8.602;2023-07-20T16:26:25;33.92;46.86
77052;SHT30;65980;44.898;8.602;2023-07-20T16:29:30;33.73;47.27
77052;SHT30;65980;44.898;8.602;2023-07-20T16:32:35;33.53;47.64
77052;SHT30;65980;44.898;8.602;2023-07-20T16:35:40;33.58;47.53
77052;SHT30;65980;44.898;8.602;2023-07-20T16:38:45;33.97;46.68
77052;SHT30;65980;44.898;8.602;2023-07-20T16:41:49;33.72;47.08
77052;SHT30;65980;44.898;8.602;2023-07-20T16:44:53;33.56;47.49
77052;SHT30;65980;44.898;8.602;2023-07-20T16:47:57;33.41;47.81
77052;SHT30;65980;44.898;8.602;2023-07-20T16:51:01;33.26;48.37
77052;SHT30;65980;44.898;8.602;2023-07-20T16:54:06;33.07;49.00
77052;SHT30;65980;44.898;8.602;2023-07-20T16:57:11;33.01;47.27
77052;SHT30;65980;44.898;8.602;2023-07-20T17:00:17;32.83;46.83
77052;SHT30;65980;44.898;8.602;2023-07-20T17:03:21;32.63;46.93
77052;SHT30;65980;44.898;8.602;2023-07-20T17:06:25;32.64;47.40
77052;SHT30;65980;44.898;8.602;2023-07-20T17:09:29;32.62;47.94
77052;SHT30;65980;44.898;8.602;2023-07-20T17:12:37;32.67;48.46
77052;SHT30;65980;44.898;8.602;2023-07-20T17:15:49;32.62;49.18
77052;SHT30;65980;44.898;8.602;2023-07-20T17:18:57;32.74;49.22
77052;SHT30;65980;44.898;8.602;2023-07-20T17:22:02;32.81;49.81
77052;SHT30;65980;44.898;8.602;2023-07-20T17:25:08;32.73;49.62
77052;SHT30;65980;44.898;8.602;2023-07-20T17:28:15;32.81;49.71
77052;SHT30;65980;44.898;8.602;2023-07-20T17:31:20;32.84;49.79
77052;SHT30;65980;44.898;8.602;2023-07-20T17:34:25;32.74;50.41
77052;SHT30;65980;44.898;8.602;2023-07-20T17:37:29;32.66;51.18
77052;SHT30;65980;44.898;8.602;2023-07-20T17:40:33;32.48;50.86
77052;SHT30;65980;44.898;8.602;2023-07-20T17:43:40;32.40;51.20
77052;SHT30;65980;44.898;8.602;2023-07-20T17:46:46;32.22;51.98
77052;SHT30;65980;44.898;8.602;2023-07-20T17:49:51;32.22;52.51
77052;SHT30;65980;44.898;8.602;2023-07-20T17:52:56;32.17;52.89
77052;SHT30;65980;44.898;8.602;2023-07-20T17:56:01;32.05;53.30
77052;SHT30;65980;44.898;8.602;2023-07-20T17:59:06;31.88;54.09
77052;SHT30;65980;44.898;8.602;2023-07-20T18:02:10;31.83;54.90
77052;SHT30;65980;44.898;8.602;2023-07-20T18:05:16;31.88;55.10
77052;SHT30;65980;44.898;8.602;2023-07-20T18:08:21;31.70;55.90
77052;SHT30;65980;44.898;8.602;2023-07-20T18:11:25;31.63;55.98
77052;SHT30;65980;44.898;8.602;2023-07-20T18:14:30;31.54;55.97
77052;SHT30;65980;44.898;8.602;2023-07-20T18:17:36;31.49;56.40
77052;SHT30;65980;44.898;8.602;2023-07-20T18:20:42;31.36;57.10
77052;SHT30;65980;44.898;8.602;2023-07-20T18:23:46;31.28;57.48
77052;SHT30;65980;44.898;8.602;2023-07-20T18:26:50;31.19;58.12
77052;SHT30;65980;44.898;8.602;2023-07-20T18:29:55;30.96;58.72
77052;SHT30;65980;44.898;8.602;2023-07-20T18:33:01;30.94;58.51
77052;SHT30;65980;44.898;8.602;2023-07-20T18:36:09;30.78;59.29
77052;SHT30;65980;44.898;8.602;2023-07-20T18:39:15;30.80;59.18
77052;SHT30;65980;44.898;8.602;2023-07-20T18:42:19;30.78;59.46
77052;SHT30;65980;44.898;8.602;2023-07-20T18:45:26;30.68;59.88
77052;SHT30;65980;44.898;8.602;2023-07-20T18:48:30;30.63;60.30
77052;SHT30;65980;44.898;8.602;2023-07-20T18:51:34;30.52;60.64
77052;SHT30;65980;44.898;8.602;2023-07-20T18:54:38;30.44;61.01
77052;SHT30;65980;44.898;8.602;2023-07-20T18:57:43;30.36;61.12
77052;SHT30;65980;44.898;8.602;2023-07-20T19:00:47;30.19;61.85
77052;SHT30;65980;44.898;8.602;2023-07-20T19:03:51;30.25;61.35
77052;SHT30;65980;44.898;8.602;2023-07-20T19:06:55;30.16;62.02
77052;SHT30;65980;44.898;8.602;2023-07-20T19:09:59;30.02;62.51
77052;SHT30;65980;44.898;8.602;2023-07-20T19:13:03;29.97;62.54
77052;SHT30;65980;44.898;8.602;2023-07-20T19:16:07;29.98;62.44
77052;SHT30;65980;44.898;8.602;2023-07-20T19:19:11;29.89;62.87
77052;SHT30;65980;44.898;8.602;2023-07-20T19:22:17;29.88;62.72
77052;SHT30;65980;44.898;8.602;2023-07-20T19:25:22;29.91;62.40
77052;SHT30;65980;44.898;8.602;2023-07-20T19:28:26;29.80;62.82
77052;SHT30;65980;44.898;8.602;2023-07-20T19:31:30;29.67;63.49
77052;SHT30;65980;44.898;8.602;2023-07-20T19:34:34;29.61;63.60
77052;SHT30;65980;44.898;8.602;2023-07-20T19:37:38;29.66;63.44
77052;SHT30;65980;44.898;8.602;2023-07-20T19:40:43;29.56;63.90
77052;SHT30;65980;44.898;8.602;2023-07-20T19:43:48;29.42;64.21
77052;SHT30;65980;44.898;8.602;2023-07-20T19:46:52;29.29;64.48
77052;SHT30;65980;44.898;8.602;2023-07-20T19:49:56;29.11;65.13
77052;SHT30;65980;44.898;8.602;2023-07-20T19:53:02;29.08;65.16
77052;SHT30;65980;44.898;8.602;2023-07-20T19:56:07;29.27;64.39
77052;SHT30;65980;44.898;8.602;2023-07-20T19:59:12;29.33;64.32
77052;SHT30;65980;44.898;8.602;2023-07-20T20:02:17;29.22;64.76
77052;SHT30;65980;44.898;8.602;2023-07-20T20:05:21;29.15;64.79
77052;SHT30;65980;44.898;8.602;2023-07-20T20:08:32;29.04;65.15
77052;SHT30;65980;44.898;8.602;2023-07-20T20:11:37;28.95;65.47
77052;SHT30;65980;44.898;8.602;2023-07-20T20:14:45;28.81;66.05
77052;SHT30;65980;44.898;8.602;2023-07-20T20:17:49;28.84;66.06
77052;SHT30;65980;44.898;8.602;2023-07-20T20:20:55;28.74;66.42
77052;SHT30;65980;44.898;8.602;2023-07-20T20:24:03;28.85;66.12
77052;SHT30;65980;44.898;8.602;2023-07-20T20:27:08;28.67;66.71
77052;SHT30;65980;44.898;8.602;2023-07-20T20:30:12;28.84;66.23
77052;SHT30;65980;44.898;8.602;2023-07-20T20:33:18;28.77;66.34
77052;SHT30;65980;44.898;8.602;2023-07-20T20:36:24;28.56;67.17
77052;SHT30;65980;44.898;8.602;2023-07-20T20:39:29;28.65;66.96
77052;SHT30;65980;44.898;8.602;2023-07-20T20:42:33;28.71;66.83
77052;SHT30;65980;44.898;8.602;2023-07-20T20:45:39;28.74;66.81
77052;SHT30;65980;44.898;8.602;2023-07-20T20:48:43;28.84;66.52